createdAt,value
2023-04-11T00:00:10.828Z,8.78
2023-04-11T00:00:38.434Z,8.77
2023-04-11T00:01:01.775Z,8.77
2023-04-11T00:01:25.170Z,8.76
2023-04-11T00:01:49.926Z,8.76
2023-04-11T00:02:13.969Z,8.76
2023-04-11T00:02:39.263Z,8.74
2023-04-11T00:03:03.101Z,8.74
2023-04-11T00:03:26.668Z,8.73
2023-04-11T00:03:50.170Z,8.73
2023-04-11T00:04:15.182Z,8.72
2023-04-11T00:04:39.364Z,8.71
2023-04-11T00:05:03.397Z,8.71
2023-04-11T00:05:27.571Z,8.70
2023-04-11T00:05:50.680Z,8.69
2023-04-11T00:06:20.537Z,8.68
2023-04-11T00:06:44.805Z,8.68
2023-04-11T00:07:07.885Z,8.67
2023-04-11T00:07:32.743Z,8.66
2023-04-11T00:07:55.979Z,8.65
2023-04-11T00:08:19.895Z,8.65
2023-04-11T00:08:44.659Z,8.63
2023-04-11T00:09:08.781Z,8.63
2023-04-11T00:09:32.099Z,8.62
2023-04-11T00:09:56.236Z,8.61
2023-04-11T00:10:19.655Z,8.60
2023-04-11T00:10:44.960Z,8.60
2023-04-11T00:11:08.851Z,8.59
2023-04-11T00:11:32.372Z,8.58
2023-04-11T00:11:57.035Z,8.58
2023-04-11T00:12:20.300Z,8.57
2023-04-11T00:12:43.454Z,8.56
2023-04-11T00:13:10.491Z,8.57
2023-04-11T00:13:37.871Z,8.56
2023-04-11T00:14:01.188Z,8.56
2023-04-11T00:14:25.324Z,8.57
2023-04-11T00:14:49.457Z,8.57
2023-04-11T00:15:12.477Z,8.58
2023-04-11T00:15:37.745Z,8.59
2023-04-11T00:16:03.698Z,8.61
2023-04-11T00:16:27.038Z,8.62
2023-04-11T00:16:54.130Z,8.63
2023-04-11T00:17:17.958Z,8.64
2023-04-11T00:17:41.753Z,8.64
2023-04-11T00:18:06.573Z,8.64
2023-04-11T00:18:29.732Z,8.64
2023-04-11T00:18:53.034Z,8.63
2023-04-11T00:19:17.219Z,8.62
2023-04-11T00:19:40.328Z,8.61
2023-04-11T00:20:11.084Z,8.61
2023-04-11T00:20:34.446Z,8.59
2023-04-11T00:21:00.612Z,8.59
2023-04-11T00:21:25.050Z,8.58
2023-04-11T00:21:48.269Z,8.57
2023-04-11T00:22:14.039Z,8.57
2023-04-11T00:22:39.106Z,8.56
2023-04-11T00:23:02.215Z,8.55
2023-04-11T00:23:25.957Z,8.55
2023-04-11T00:23:49.777Z,8.54
2023-04-11T00:24:12.993Z,8.53
2023-04-11T00:24:36.410Z,8.53
2023-04-11T00:24:59.426Z,8.53
2023-04-11T00:25:22.666Z,8.52
2023-04-11T00:25:45.970Z,8.52
2023-04-11T00:26:09.196Z,8.52
2023-04-11T00:26:38.934Z,8.51
2023-04-11T00:27:02.238Z,8.50
2023-04-11T00:27:26.402Z,8.50
2023-04-11T00:27:49.508Z,8.50
2023-04-11T00:28:13.135Z,8.49
2023-04-11T00:28:37.488Z,8.48
2023-04-11T00:29:00.803Z,8.47
2023-04-11T00:29:24.415Z,8.48
2023-04-11T00:29:47.629Z,8.47
2023-04-11T00:30:11.256Z,8.46
2023-04-11T00:30:34.377Z,8.45
2023-04-11T00:30:58.403Z,8.45
2023-04-11T00:31:21.588Z,8.44
2023-04-11T00:31:44.807Z,8.44
2023-04-11T00:32:08.086Z,8.43
2023-04-11T00:32:31.311Z,8.43
2023-04-11T00:32:54.423Z,8.43
2023-04-11T00:33:18.675Z,8.42
2023-04-11T00:33:42.108Z,8.41
2023-04-11T00:34:05.377Z,8.41
2023-04-11T00:34:28.686Z,8.40
2023-04-11T00:34:52.615Z,8.41
2023-04-11T00:35:16.235Z,8.41
2023-04-11T00:35:40.939Z,8.42
2023-04-11T00:36:04.496Z,8.44
2023-04-11T00:36:28.615Z,8.45
2023-04-11T00:36:51.819Z,8.47
2023-04-11T00:37:15.081Z,8.49
2023-04-11T00:37:38.397Z,8.50
2023-04-11T00:38:02.504Z,8.52
2023-04-11T00:38:25.547Z,8.53
2023-04-11T00:38:55.230Z,8.55
2023-04-11T00:39:20.466Z,8.56
2023-04-11T00:39:45.248Z,8.56
2023-04-11T00:40:09.057Z,8.56
2023-04-11T00:40:32.773Z,8.56
2023-04-11T00:41:15.629Z,8.55
2023-04-11T00:41:43.140Z,8.55
2023-04-11T00:42:08.000Z,8.54
2023-04-11T00:42:33.869Z,8.54
2023-04-11T00:42:57.090Z,8.54
2023-04-11T00:43:20.404Z,8.53
2023-04-11T00:43:43.437Z,8.53
2023-04-11T00:44:07.255Z,8.53
2023-04-11T00:44:31.996Z,8.52
2023-04-11T00:44:55.315Z,8.52
2023-04-11T00:45:18.398Z,8.52
2023-04-11T00:45:41.559Z,8.51
2023-04-11T00:46:05.728Z,8.50
2023-04-11T00:46:28.998Z,8.50
2023-04-11T00:46:52.009Z,8.50
2023-04-11T00:47:15.483Z,8.49
2023-04-11T00:47:39.033Z,8.49
2023-04-11T00:48:08.449Z,8.49
2023-04-11T00:48:36.636Z,8.48
2023-04-11T00:48:59.832Z,8.48
2023-04-11T00:49:26.544Z,8.48
2023-04-11T00:49:50.075Z,8.47
2023-04-11T00:50:14.284Z,8.47
2023-04-11T00:50:41.715Z,8.47
2023-04-11T00:51:05.464Z,8.46
2023-04-11T00:51:28.866Z,8.45
2023-04-11T00:51:52.102Z,8.45
2023-04-11T00:52:16.113Z,8.45
2023-04-11T00:52:39.435Z,8.45
2023-04-11T00:53:02.549Z,8.45
2023-04-11T00:53:25.968Z,8.44
2023-04-11T00:53:49.398Z,8.44
2023-04-11T00:54:13.427Z,8.44
2023-04-11T00:54:36.331Z,8.46
2023-04-11T00:55:09.689Z,8.46
2023-04-11T00:55:33.302Z,8.48
2023-04-11T00:55:56.415Z,8.50
2023-04-11T00:56:21.062Z,8.52
2023-04-11T00:56:44.079Z,8.54
2023-04-11T00:57:09.014Z,8.56
2023-04-11T00:57:32.558Z,8.57
2023-04-11T00:57:56.081Z,8.59
2023-04-11T00:58:19.907Z,8.59
2023-04-11T00:58:43.433Z,8.60
2023-04-11T00:59:06.850Z,8.61
2023-04-11T00:59:30.375Z,8.60
2023-04-11T00:59:53.493Z,8.60
2023-04-11T01:00:16.607Z,8.60
2023-04-11T01:00:42.996Z,8.60
2023-04-11T01:01:09.674Z,8.60
2023-04-11T01:01:36.622Z,8.59
2023-04-11T01:02:00.512Z,8.59
2023-04-11T01:02:25.201Z,8.58
2023-04-11T01:02:50.595Z,8.58
2023-04-11T01:03:14.828Z,8.58
2023-04-11T01:03:38.968Z,8.58
2023-04-11T01:04:02.492Z,8.57
2023-04-11T01:04:32.931Z,8.58
2023-04-11T01:04:56.838Z,8.57
2023-04-11T01:05:20.370Z,8.57
2023-04-11T01:05:43.678Z,8.57
2023-04-11T01:06:08.942Z,8.56
2023-04-11T01:06:32.055Z,8.56
2023-04-11T01:06:56.807Z,8.56
2023-04-11T01:07:19.816Z,8.55
2023-04-11T01:07:44.057Z,8.55
2023-04-11T01:08:07.894Z,8.54
2023-04-11T01:08:31.133Z,8.54
2023-04-11T01:08:54.485Z,8.53
2023-04-11T01:09:19.078Z,8.53
2023-04-11T01:09:42.292Z,8.53
2023-04-11T01:10:06.113Z,8.52
2023-04-11T01:10:30.927Z,8.52
2023-04-11T01:10:54.113Z,8.51
2023-04-11T01:11:20.339Z,8.51
2023-04-11T01:11:43.379Z,8.50
2023-04-11T01:12:06.717Z,8.50
2023-04-11T01:12:29.915Z,8.49
2023-04-11T01:13:01.413Z,8.48
2023-04-11T01:13:34.251Z,8.48
2023-04-11T01:13:57.601Z,8.48
2023-04-11T01:14:22.211Z,8.48
2023-04-11T01:14:47.988Z,8.48
2023-04-11T01:15:11.039Z,8.49
2023-04-11T01:15:34.726Z,8.51
2023-04-11T01:15:58.082Z,8.52
2023-04-11T01:16:21.898Z,8.53
2023-04-11T01:16:47.569Z,8.55
2023-04-11T01:17:12.924Z,8.56
2023-04-11T01:17:36.284Z,8.57
2023-04-11T01:18:02.397Z,8.58
2023-04-11T01:18:28.389Z,8.59
2023-04-11T01:18:51.813Z,8.59
2023-04-11T01:19:18.234Z,8.59
2023-04-11T01:19:42.752Z,8.59
2023-04-11T01:20:07.961Z,8.58
2023-04-11T01:20:32.037Z,8.57
2023-04-11T01:20:55.764Z,8.57
2023-04-11T01:21:20.720Z,8.56
2023-04-11T01:21:45.063Z,8.55
2023-04-11T01:22:08.074Z,8.55
2023-04-11T01:22:31.902Z,8.54
2023-04-11T01:22:56.969Z,8.53
2023-04-11T01:23:26.114Z,8.52
2023-04-11T01:23:52.852Z,8.52
2023-04-11T01:24:15.920Z,8.51
2023-04-11T01:24:39.052Z,8.51
2023-04-11T01:25:03.385Z,8.50
2023-04-11T01:25:27.302Z,8.49
2023-04-11T01:25:51.244Z,8.49
2023-04-11T01:26:14.656Z,8.48
2023-04-11T01:26:38.181Z,8.48
2023-04-11T01:27:02.323Z,8.47
2023-04-11T01:27:26.045Z,8.47
2023-04-11T01:27:49.059Z,8.45
2023-04-11T01:28:13.114Z,8.44
2023-04-11T01:28:36.424Z,8.44
2023-04-11T01:28:59.934Z,8.44
2023-04-11T01:29:22.920Z,8.43
2023-04-11T01:29:46.164Z,8.42
2023-04-11T01:30:12.884Z,8.41
2023-04-11T01:30:36.288Z,8.41
2023-04-11T01:30:59.523Z,8.41
2023-04-11T01:31:27.341Z,8.42
2023-04-11T01:31:51.175Z,8.43
2023-04-11T01:32:14.566Z,8.45
2023-04-11T01:32:37.911Z,8.46
2023-04-11T01:33:01.083Z,8.48
2023-04-11T01:33:25.028Z,8.49
2023-04-11T01:33:48.355Z,8.51
2023-04-11T01:34:14.327Z,8.52
2023-04-11T01:34:37.956Z,8.53
2023-04-11T01:35:01.067Z,8.54
2023-04-11T01:35:24.486Z,8.54
2023-04-11T01:35:47.794Z,8.54
2023-04-11T01:36:11.608Z,8.54
2023-04-11T01:36:39.456Z,8.53
2023-04-11T01:37:02.975Z,8.53
2023-04-11T01:37:26.333Z,8.53
2023-04-11T01:37:50.334Z,8.52
2023-04-11T01:38:13.647Z,8.51
2023-04-11T01:38:37.172Z,8.51
2023-04-11T01:39:00.703Z,8.50
2023-04-11T01:39:24.121Z,8.49
2023-04-11T01:39:47.240Z,8.49
2023-04-11T01:40:10.751Z,8.48
2023-04-11T01:40:35.093Z,8.47
2023-04-11T01:40:58.311Z,8.47
2023-04-11T01:41:21.729Z,8.46
2023-04-11T01:41:52.106Z,8.45
2023-04-11T01:42:15.453Z,8.44
2023-04-11T01:42:38.491Z,8.43
2023-04-11T01:43:04.836Z,8.43
2023-04-11T01:43:28.448Z,8.42
2023-04-11T01:43:51.662Z,8.42
2023-04-11T01:44:15.716Z,8.41
2023-04-11T01:44:39.016Z,8.40
2023-04-11T01:45:02.438Z,8.39
2023-04-11T01:45:26.475Z,8.39
2023-04-11T01:45:51.542Z,8.39
2023-04-11T01:46:14.847Z,8.38
2023-04-11T01:46:37.860Z,8.38
2023-04-11T01:47:04.254Z,8.37
2023-04-11T01:47:28.050Z,8.37
2023-04-11T01:47:54.830Z,8.37
2023-04-11T01:48:18.123Z,8.38
2023-04-11T01:48:42.487Z,8.38
2023-04-11T01:49:06.868Z,8.40
2023-04-11T01:49:30.935Z,8.41
2023-04-11T01:49:54.033Z,8.43
2023-04-11T01:50:17.237Z,8.45
2023-04-11T01:50:43.011Z,8.47
2023-04-11T01:51:07.554Z,8.48
2023-04-11T01:51:30.978Z,8.48
2023-04-11T01:51:55.032Z,8.50
2023-04-11T01:52:18.329Z,8.50
2023-04-11T01:52:42.462Z,8.50
2023-04-11T01:53:11.830Z,8.51
2023-04-11T01:53:35.045Z,8.51
2023-04-11T01:53:58.868Z,8.50
2023-04-11T01:54:22.391Z,8.50
2023-04-11T01:54:46.015Z,8.49
2023-04-11T01:55:09.334Z,8.49
2023-04-11T01:55:33.366Z,8.49
2023-04-11T01:55:56.998Z,8.48
2023-04-11T01:56:20.238Z,8.48
2023-04-11T01:56:43.834Z,8.48
2023-04-11T01:57:07.059Z,8.48
2023-04-11T01:57:30.168Z,8.48
2023-04-11T01:57:53.282Z,8.47
2023-04-11T01:58:16.603Z,8.47
2023-04-11T01:58:39.827Z,8.46
2023-04-11T01:59:05.811Z,8.46
2023-04-11T01:59:29.110Z,8.47
2023-04-11T01:59:54.175Z,8.46
2023-04-11T02:00:17.697Z,8.45
2023-04-11T02:00:42.238Z,8.45
2023-04-11T02:01:05.704Z,8.44
2023-04-11T02:01:32.204Z,8.45
2023-04-11T02:01:55.649Z,8.44
2023-04-11T02:02:20.908Z,8.44
2023-04-11T02:02:44.302Z,8.43
2023-04-11T02:03:07.833Z,8.43
2023-04-11T02:03:32.783Z,8.43
2023-04-11T02:03:57.667Z,8.42
2023-04-11T02:04:21.188Z,8.42
2023-04-11T02:04:44.733Z,8.41
2023-04-11T02:05:11.032Z,8.41
2023-04-11T02:05:36.376Z,8.42
2023-04-11T02:06:04.108Z,8.43
2023-04-11T02:06:38.786Z,8.45
2023-04-11T02:07:03.008Z,8.47
2023-04-11T02:07:29.019Z,8.49
2023-04-11T02:07:52.923Z,8.51
2023-04-11T02:08:16.438Z,8.53
2023-04-11T02:08:41.153Z,8.53
2023-04-11T02:09:04.614Z,8.54
2023-04-11T02:09:28.234Z,8.55
2023-04-11T02:09:51.363Z,8.55
2023-04-11T02:10:15.079Z,8.55
2023-04-11T02:10:38.396Z,8.55
2023-04-11T02:11:01.549Z,8.55
2023-04-11T02:11:24.929Z,8.54
2023-04-11T02:11:47.954Z,8.54
2023-04-11T02:12:12.973Z,8.54
2023-04-11T02:12:37.654Z,8.54
2023-04-11T02:13:04.443Z,8.54
2023-04-11T02:13:37.189Z,8.53
2023-04-11T02:14:06.493Z,8.53
2023-04-11T02:14:38.857Z,8.53
2023-04-11T02:15:02.796Z,8.52
2023-04-11T02:15:28.573Z,8.52
2023-04-11T02:15:53.384Z,8.52
2023-04-11T02:16:20.974Z,8.52
2023-04-11T02:16:51.217Z,8.52
2023-04-11T02:17:14.356Z,8.52
2023-04-11T02:17:37.771Z,8.52
2023-04-11T02:18:02.075Z,8.51
2023-04-11T02:18:26.301Z,8.51
2023-04-11T02:18:49.517Z,8.51
2023-04-11T02:19:12.733Z,8.51
2023-04-11T02:19:36.415Z,8.50
2023-04-11T02:19:59.476Z,8.50
2023-04-11T02:20:24.720Z,8.49
2023-04-11T02:20:53.280Z,8.49
2023-04-11T02:21:19.050Z,8.50
2023-04-11T02:21:50.034Z,8.50
2023-04-11T02:22:13.260Z,8.52
2023-04-11T02:22:37.126Z,8.53
2023-04-11T02:23:04.561Z,8.55
2023-04-11T02:23:29.343Z,8.56
2023-04-11T02:23:52.596Z,8.58
2023-04-11T02:24:17.099Z,8.59
2023-04-11T02:24:41.644Z,8.60
2023-04-11T02:25:06.312Z,8.60
2023-04-11T02:25:30.841Z,8.61
2023-04-11T02:25:55.449Z,8.61
2023-04-11T02:26:18.705Z,8.61
2023-04-11T02:26:42.450Z,8.60
2023-04-11T02:27:06.472Z,8.60
2023-04-11T02:27:33.371Z,8.60
2023-04-11T02:27:59.546Z,8.60
2023-04-11T02:28:24.007Z,8.60
2023-04-11T02:28:50.280Z,8.59
2023-04-11T02:29:13.499Z,8.59
2023-04-11T02:29:36.817Z,8.59
2023-04-11T02:30:01.354Z,8.58
2023-04-11T02:30:28.255Z,8.58
2023-04-11T02:30:54.129Z,8.58
2023-04-11T02:31:17.417Z,8.58
2023-04-11T02:31:40.979Z,8.57
2023-04-11T02:32:06.155Z,8.58
2023-04-11T02:32:30.431Z,8.57
2023-04-11T02:32:53.607Z,8.57
2023-04-11T02:33:16.906Z,8.56
2023-04-11T02:33:39.924Z,8.56
2023-04-11T02:34:03.170Z,8.56
2023-04-11T02:34:27.067Z,8.55
2023-04-11T02:34:56.111Z,8.55
2023-04-11T02:35:26.691Z,8.55
2023-04-11T02:35:50.329Z,8.54
2023-04-11T02:36:14.012Z,8.54
2023-04-11T02:36:39.110Z,8.54
2023-04-11T02:37:02.265Z,8.54
2023-04-11T02:37:26.481Z,8.54
2023-04-11T02:37:49.676Z,8.54
2023-04-11T02:38:12.996Z,8.54
2023-04-11T02:38:37.738Z,8.54
2023-04-11T02:39:00.722Z,8.53
2023-04-11T02:39:24.307Z,8.54
2023-04-11T02:39:47.235Z,8.54
2023-04-11T02:40:10.833Z,8.56
2023-04-11T02:40:34.647Z,8.57
2023-04-11T02:41:00.422Z,8.58
2023-04-11T02:41:27.627Z,8.60
2023-04-11T02:41:57.545Z,8.62
2023-04-11T02:42:20.700Z,8.64
2023-04-11T02:42:47.087Z,8.66
2023-04-11T02:43:10.116Z,8.68
2023-04-11T02:43:34.442Z,8.68
2023-04-11T02:43:57.868Z,8.69
2023-04-11T02:44:22.651Z,8.69
2023-04-11T02:44:46.337Z,8.69
2023-04-11T02:45:09.941Z,8.69
2023-04-11T02:45:33.181Z,8.69
2023-04-11T02:46:09.597Z,8.69
2023-04-11T02:46:36.209Z,8.68
2023-04-11T02:47:00.330Z,8.68
2023-04-11T02:47:28.718Z,8.67
2023-04-11T02:48:01.629Z,8.67
2023-04-11T02:48:27.078Z,8.66
2023-04-11T02:48:50.391Z,8.65
2023-04-11T02:49:13.904Z,8.65
2023-04-11T02:49:37.412Z,8.65
2023-04-11T02:50:00.944Z,8.65
2023-04-11T02:50:28.033Z,8.65
2023-04-11T02:50:51.886Z,8.64
2023-04-11T02:51:15.089Z,8.64
2023-04-11T02:51:38.619Z,8.63
2023-04-11T02:52:01.829Z,8.63
2023-04-11T02:52:26.369Z,8.63
2023-04-11T02:52:49.892Z,8.62
2023-04-11T02:53:16.608Z,8.62
2023-04-11T02:53:44.615Z,8.61
2023-04-11T02:54:13.456Z,8.61
2023-04-11T02:54:37.086Z,8.60
2023-04-11T02:55:01.685Z,8.60
2023-04-11T02:55:27.292Z,8.59
2023-04-11T02:55:51.754Z,8.59
2023-04-11T02:56:19.051Z,8.59
2023-04-11T02:56:44.306Z,8.58
2023-04-11T02:57:07.520Z,8.58
2023-04-11T02:57:30.762Z,8.59
2023-04-11T02:57:54.158Z,8.60
2023-04-11T02:58:18.253Z,8.62
2023-04-11T02:58:43.557Z,8.63
2023-04-11T02:59:08.204Z,8.65
2023-04-11T02:59:31.934Z,8.67
2023-04-11T02:59:57.931Z,8.68
2023-04-11T03:00:33.213Z,8.70
2023-04-11T03:01:00.712Z,8.70
2023-04-11T03:01:27.618Z,8.71
2023-04-11T03:01:59.006Z,8.71
2023-04-11T03:02:23.677Z,8.70
2023-04-11T03:02:47.395Z,8.70
2023-04-11T03:03:12.265Z,8.70
2023-04-11T03:03:38.990Z,8.69
2023-04-11T03:04:02.878Z,8.68
2023-04-11T03:04:35.105Z,8.68
2023-04-11T03:05:09.264Z,8.67
2023-04-11T03:05:33.268Z,8.66
2023-04-11T03:05:57.208Z,8.64
2023-04-11T03:06:20.825Z,8.64
2023-04-11T03:06:44.147Z,8.64
2023-04-11T03:07:07.462Z,8.63
2023-04-11T03:07:32.247Z,8.62
2023-04-11T03:07:57.983Z,8.61
2023-04-11T03:08:24.478Z,8.60
2023-04-11T03:08:50.355Z,8.60
2023-04-11T03:09:13.711Z,8.59
2023-04-11T03:09:40.365Z,8.59
2023-04-11T03:10:03.691Z,8.58
2023-04-11T03:10:29.305Z,8.58
2023-04-11T03:10:54.001Z,8.57
2023-04-11T03:11:17.942Z,8.57
2023-04-11T03:11:41.397Z,8.56
2023-04-11T03:12:04.625Z,8.56
2023-04-11T03:12:27.991Z,8.55
2023-04-11T03:12:53.459Z,8.54
2023-04-11T03:13:16.576Z,8.53
2023-04-11T03:13:39.842Z,8.53
2023-04-11T03:14:07.342Z,8.52
2023-04-11T03:14:32.009Z,8.52
2023-04-11T03:14:57.218Z,8.53
2023-04-11T03:15:24.113Z,8.54
2023-04-11T03:15:48.923Z,8.55
2023-04-11T03:16:14.081Z,8.57
2023-04-11T03:16:38.583Z,8.58
2023-04-11T03:17:02.289Z,8.59
2023-04-11T03:17:28.764Z,8.61
2023-04-11T03:17:52.183Z,8.62
2023-04-11T03:18:15.418Z,8.62
2023-04-11T03:18:41.090Z,8.63
2023-04-11T03:19:06.204Z,8.63
2023-04-11T03:19:29.263Z,8.64
2023-04-11T03:19:52.891Z,8.63
2023-04-11T03:20:21.830Z,8.62
2023-04-11T03:20:47.093Z,8.62
2023-04-11T03:21:15.216Z,8.61
2023-04-11T03:21:50.138Z,8.60
2023-04-11T03:22:13.770Z,8.59
2023-04-11T03:22:38.982Z,8.59
2023-04-11T03:23:02.245Z,8.59
2023-04-11T03:23:25.520Z,8.58
2023-04-11T03:23:49.640Z,8.58
2023-04-11T03:24:13.076Z,8.57
2023-04-11T03:24:39.565Z,8.57
2023-04-11T03:25:03.817Z,8.56
2023-04-11T03:25:28.268Z,8.56
2023-04-11T03:25:51.905Z,8.55
2023-04-11T03:26:15.295Z,8.55
2023-04-11T03:26:39.131Z,8.54
2023-04-11T03:27:06.124Z,8.53
2023-04-11T03:27:29.748Z,8.53
2023-04-11T03:27:58.895Z,8.52
2023-04-11T03:28:24.186Z,8.51
2023-04-11T03:28:47.204Z,8.51
2023-04-11T03:29:12.130Z,8.51
2023-04-11T03:29:45.632Z,8.51
2023-04-11T03:30:19.941Z,8.50
2023-04-11T03:30:44.180Z,8.49
2023-04-11T03:31:09.885Z,8.50
2023-04-11T03:31:33.418Z,8.50
2023-04-11T03:31:56.789Z,8.51
2023-04-11T03:32:19.806Z,8.52
2023-04-11T03:32:43.676Z,8.54
2023-04-11T03:33:07.375Z,8.55
2023-04-11T03:33:30.574Z,8.57
2023-04-11T03:33:53.707Z,8.58
2023-04-11T03:34:18.952Z,8.59
2023-04-11T03:34:42.509Z,8.60
2023-04-11T03:35:06.204Z,8.60
2023-04-11T03:35:30.670Z,8.61
2023-04-11T03:35:54.892Z,8.61
2023-04-11T03:36:19.063Z,8.61
2023-04-11T03:36:44.607Z,8.61
2023-04-11T03:37:08.627Z,8.60
2023-04-11T03:37:32.496Z,8.60
2023-04-11T03:37:55.777Z,8.60
2023-04-11T03:38:18.887Z,8.60
2023-04-11T03:38:42.823Z,8.59
2023-04-11T03:39:06.246Z,8.59
2023-04-11T03:39:29.262Z,8.59
2023-04-11T03:39:53.593Z,8.58
2023-04-11T03:40:18.801Z,8.58
2023-04-11T03:40:46.267Z,8.58
2023-04-11T03:41:11.630Z,8.57
2023-04-11T03:41:34.854Z,8.57
2023-04-11T03:41:58.170Z,8.57
2023-04-11T03:42:21.898Z,8.57
2023-04-11T03:42:48.176Z,8.56
2023-04-11T03:43:13.542Z,8.56
2023-04-11T03:43:37.076Z,8.56
2023-04-11T03:44:00.183Z,8.56
2023-04-11T03:44:23.469Z,8.55
2023-04-11T03:44:46.920Z,8.55
2023-04-11T03:45:10.237Z,8.55
2023-04-11T03:45:33.349Z,8.56
2023-04-11T03:45:57.793Z,8.55
2023-04-11T03:46:33.246Z,8.55
2023-04-11T03:46:57.151Z,8.56
2023-04-11T03:47:21.354Z,8.56
2023-04-11T03:47:44.901Z,8.57
2023-04-11T03:48:08.797Z,8.58
2023-04-11T03:48:58.260Z,8.61
2023-04-11T03:49:22.344Z,8.64
2023-04-11T03:49:48.937Z,8.67
2023-04-11T03:50:12.461Z,8.69
2023-04-11T03:50:39.460Z,8.71
2023-04-11T03:51:02.786Z,8.73
2023-04-11T03:51:33.686Z,8.74
2023-04-11T03:52:02.095Z,8.75
2023-04-11T03:52:25.841Z,8.76
2023-04-11T03:52:49.346Z,8.76
2023-04-11T03:53:12.664Z,8.76
2023-04-11T03:53:37.625Z,8.76
2023-04-11T03:54:10.453Z,8.76
2023-04-11T03:54:37.669Z,8.77
2023-04-11T03:55:00.979Z,8.76
2023-04-11T03:55:26.238Z,8.77
2023-04-11T03:55:49.619Z,8.77
2023-04-11T03:56:12.985Z,8.77
2023-04-11T03:56:36.459Z,8.77
2023-04-11T03:56:59.509Z,8.78
2023-04-11T03:57:28.155Z,8.77
2023-04-11T03:57:52.325Z,8.78
2023-04-11T03:58:15.810Z,8.78
2023-04-11T03:58:39.864Z,8.78
2023-04-11T03:59:03.623Z,8.78
2023-04-11T03:59:47.867Z,8.78
2023-04-11T04:00:11.790Z,8.78
2023-04-11T04:01:02.861Z,8.78
2023-04-11T04:01:27.365Z,8.78
2023-04-11T04:01:52.267Z,8.79
2023-04-11T04:02:15.809Z,8.79
2023-04-11T04:02:43.369Z,8.79
2023-04-11T04:03:08.741Z,8.80
2023-04-11T04:03:33.216Z,8.79
2023-04-11T04:03:57.106Z,8.80
2023-04-11T04:04:20.595Z,8.80
2023-04-11T04:04:58.855Z,8.80
2023-04-11T04:05:32.925Z,8.80
2023-04-11T04:06:01.255Z,8.80
2023-04-11T04:06:28.694Z,8.81
2023-04-11T04:06:57.112Z,8.82
2023-04-11T04:08:14.314Z,8.94
2023-04-11T04:08:40.707Z,8.90
2023-04-11T04:09:04.442Z,8.92
2023-04-11T04:09:33.886Z,8.93
2023-04-11T04:09:57.100Z,8.93
2023-04-11T04:10:20.524Z,8.94
2023-04-11T04:10:47.216Z,8.94
2023-04-11T04:11:10.560Z,8.94
2023-04-11T04:11:33.941Z,8.94
2023-04-11T04:11:59.337Z,8.94
2023-04-11T04:12:37.980Z,8.93
2023-04-11T04:13:15.826Z,8.94
2023-04-11T04:13:56.031Z,8.94
2023-04-11T04:14:19.742Z,8.93
2023-04-11T04:14:43.870Z,8.93
2023-04-11T04:15:07.402Z,8.93
2023-04-11T04:15:32.872Z,8.93
2023-04-11T04:15:58.465Z,8.93
2023-04-11T04:16:24.151Z,8.93
2023-04-11T04:16:50.327Z,8.92
2023-04-11T04:17:15.860Z,8.91
2023-04-11T04:17:38.905Z,8.91
2023-04-11T04:18:05.705Z,8.91
2023-04-11T04:18:41.420Z,8.91
2023-04-11T04:19:04.780Z,8.91
2023-04-11T04:19:34.745Z,8.90
2023-04-11T04:20:02.160Z,8.90
2023-04-11T04:20:26.085Z,8.90
2023-04-11T04:20:51.971Z,8.88
2023-04-11T04:21:17.026Z,8.89
2023-04-11T04:21:42.085Z,8.88
2023-04-11T04:22:12.046Z,8.88
2023-04-11T04:22:38.722Z,8.88
2023-04-11T04:23:04.781Z,8.90
2023-04-11T04:23:47.686Z,8.91
2023-04-11T04:24:28.067Z,8.94
2023-04-11T04:25:17.062Z,8.98
2023-04-11T04:25:42.424Z,9.01
2023-04-11T04:26:06.251Z,9.03
2023-04-11T04:26:38.132Z,9.04
2023-04-11T04:27:30.330Z,9.05
2023-04-11T04:27:54.353Z,9.06
2023-04-11T04:28:22.502Z,9.06
2023-04-11T04:28:48.566Z,9.06
2023-04-11T04:29:18.249Z,9.06
2023-04-11T04:29:48.308Z,9.06
2023-04-11T04:30:19.388Z,9.05
2023-04-11T04:31:04.485Z,9.05
2023-04-11T04:31:36.474Z,9.05
2023-04-11T04:32:03.402Z,9.05
2023-04-11T04:32:33.027Z,9.04
2023-04-11T04:33:05.299Z,9.04
2023-04-11T04:33:28.999Z,9.04
2023-04-11T04:34:03.159Z,9.04
2023-04-11T04:34:29.313Z,9.04
2023-04-11T04:34:58.029Z,9.04
2023-04-11T04:35:33.301Z,9.04
2023-04-11T04:36:00.361Z,9.05
2023-04-11T04:36:26.035Z,9.05
2023-04-11T04:36:49.557Z,9.05
2023-04-11T04:37:23.114Z,9.05
2023-04-11T04:37:51.038Z,9.05
2023-04-11T04:38:21.917Z,9.05
2023-04-11T04:38:48.132Z,9.05
2023-04-11T04:39:12.343Z,9.06
2023-04-11T04:39:38.308Z,9.05
2023-04-11T04:40:08.027Z,9.05
2023-04-11T04:40:45.723Z,9.05
2023-04-11T04:41:15.274Z,9.05
2023-04-11T04:41:41.142Z,9.05
2023-04-11T04:42:04.585Z,9.04
2023-04-11T04:42:58.549Z,9.05
2023-04-11T04:43:42.871Z,9.06
2023-04-11T04:44:16.508Z,9.08
2023-04-11T04:44:45.852Z,9.09
2023-04-11T04:45:13.693Z,9.12
2023-04-11T04:45:37.553Z,9.13
2023-04-11T04:46:01.344Z,9.14
2023-04-11T04:46:36.781Z,9.16
2023-04-11T04:46:59.953Z,9.17
2023-04-11T04:47:24.518Z,9.18
2023-04-11T04:47:47.527Z,9.18
2023-04-11T04:48:12.856Z,9.18
2023-04-11T04:48:35.995Z,9.18
2023-04-11T04:49:01.001Z,9.18
2023-04-11T04:49:25.469Z,9.18
2023-04-11T04:49:48.685Z,9.17
2023-04-11T04:50:12.003Z,9.16
2023-04-11T04:50:37.778Z,9.15
2023-04-11T04:51:01.707Z,9.15
2023-04-11T04:51:30.353Z,9.15
2023-04-11T04:52:01.028Z,9.14
2023-04-11T04:52:26.013Z,9.13
2023-04-11T04:52:49.000Z,9.12
2023-04-11T04:53:14.976Z,9.12
2023-04-11T04:53:42.893Z,9.11
2023-04-11T04:54:06.906Z,9.10
2023-04-11T04:54:31.521Z,9.10
2023-04-11T04:54:58.212Z,9.10
2023-04-11T04:55:21.589Z,9.09
2023-04-11T04:55:46.453Z,9.08
2023-04-11T04:56:10.023Z,9.08
2023-04-11T04:56:35.763Z,9.07
2023-04-11T04:56:59.981Z,9.07
2023-04-11T04:57:23.091Z,9.06
2023-04-11T04:57:46.444Z,9.06
2023-04-11T04:58:09.727Z,9.05
2023-04-11T04:58:36.730Z,9.04
2023-04-11T04:59:01.487Z,9.04
2023-04-11T04:59:26.845Z,9.03
2023-04-11T04:59:54.458Z,9.03
2023-04-11T05:00:18.003Z,9.04
2023-04-11T05:00:41.822Z,9.04
2023-04-11T05:01:14.150Z,9.06
2023-04-11T05:01:40.271Z,9.06
2023-04-11T05:02:04.312Z,9.08
2023-04-11T05:02:28.795Z,9.09
2023-04-11T05:02:55.123Z,9.10
2023-04-11T05:03:21.007Z,9.11
2023-04-11T05:03:46.959Z,9.12
2023-04-11T05:04:16.121Z,9.11
2023-04-11T05:04:46.961Z,9.11
2023-04-11T05:05:11.986Z,9.10
2023-04-11T05:05:35.859Z,9.10
2023-04-11T05:05:59.682Z,9.08
2023-04-11T05:06:29.644Z,9.07
2023-04-11T05:06:59.206Z,9.06
2023-04-11T05:07:23.756Z,9.05
2023-04-11T05:07:54.430Z,9.04
2023-04-11T05:08:21.333Z,9.03
2023-04-11T05:08:44.979Z,9.02
2023-04-11T05:09:10.913Z,9.01
2023-04-11T05:09:34.763Z,9.01
2023-04-11T05:10:07.815Z,9.00
2023-04-11T05:10:33.264Z,8.99
2023-04-11T05:10:57.363Z,8.99
2023-04-11T05:11:20.821Z,8.98
2023-04-11T05:11:44.038Z,8.97
2023-04-11T05:12:07.414Z,8.96
2023-04-11T05:12:32.412Z,8.96
2023-04-11T05:12:59.721Z,8.95
2023-04-11T05:13:23.244Z,8.95
2023-04-11T05:13:50.449Z,8.94
2023-04-11T05:14:13.767Z,8.94
2023-04-11T05:14:39.759Z,8.93
2023-04-11T05:15:11.612Z,8.93
2023-04-11T05:15:39.577Z,8.93
2023-04-11T05:16:08.114Z,8.93
2023-04-11T05:16:32.472Z,8.93
2023-04-11T05:16:57.697Z,8.93
2023-04-11T05:17:25.331Z,8.95
2023-04-11T05:17:51.013Z,8.97
2023-04-11T05:18:15.751Z,8.99
2023-04-11T05:18:38.978Z,9.01
2023-04-11T05:19:02.104Z,9.02
2023-04-11T05:19:25.603Z,9.03
2023-04-11T05:19:49.229Z,9.03
2023-04-11T05:20:12.701Z,9.03
2023-04-11T05:20:36.992Z,9.04
2023-04-11T05:21:01.850Z,9.04
2023-04-11T05:21:31.540Z,9.03
2023-04-11T05:21:54.821Z,9.03
2023-04-11T05:22:22.539Z,9.03
2023-04-11T05:22:51.096Z,9.03
2023-04-11T05:23:14.509Z,9.03
2023-04-11T05:23:37.935Z,9.03
2023-04-11T05:24:01.688Z,9.02
2023-04-11T05:24:28.143Z,9.02
2023-04-11T05:24:51.963Z,9.02
2023-04-11T05:25:16.420Z,9.01
2023-04-11T05:25:39.734Z,9.02
2023-04-11T05:26:03.150Z,9.01
2023-04-11T05:26:27.893Z,9.00
2023-04-11T05:26:51.112Z,9.00
2023-04-11T05:27:15.247Z,9.00
2023-04-11T05:27:38.981Z,9.00
2023-04-11T05:28:02.598Z,8.99
2023-04-11T05:28:25.727Z,8.99
2023-04-11T05:28:49.139Z,9.00
2023-04-11T05:29:14.507Z,9.00
2023-04-11T05:29:40.112Z,8.98
2023-04-11T05:30:08.526Z,8.99
2023-04-11T05:30:34.002Z,8.98
2023-04-11T05:30:58.200Z,8.98
2023-04-11T05:31:21.784Z,8.98
2023-04-11T05:31:45.371Z,8.97
2023-04-11T05:32:08.388Z,8.97
2023-04-11T05:32:31.598Z,8.97
2023-04-11T05:32:54.915Z,8.97
2023-04-11T05:33:18.576Z,8.96
2023-04-11T05:33:43.392Z,8.97
2023-04-11T05:34:06.699Z,8.97
2023-04-11T05:34:31.551Z,8.98
2023-04-11T05:34:58.170Z,8.99
2023-04-11T05:35:37.701Z,9.02
2023-04-11T05:36:06.424Z,9.04
2023-04-11T05:36:32.652Z,9.07
2023-04-11T05:36:58.621Z,9.10
2023-04-11T05:37:23.269Z,9.11
2023-04-11T05:37:47.824Z,9.13
2023-04-11T05:38:11.753Z,9.14
2023-04-11T05:38:35.702Z,9.15
2023-04-11T05:38:58.800Z,9.16